Time;durP1;ratioP1;P1;durP2;ratioP2;P2;SDS_P1;SDS_P2;PMS_P1;PMS_P2;Temp;Humidity;BMP_temperature;BMP_pressure;BME280_temperature;BME280_humidity;BME280_pressure;Samples;Min_cycle;Max_cycle;Signal;HPM_P1;HPM_P2
2022/03/26 00:00:36;;;;;;;50.30;26.65;;;;;;;2.94;79.22;103171.91;2079888;28;45787;-71
2022/03/26 00:01:49;;;;;;;51.75;27.45;;;;;;;2.93;79.44;103170.13;2079774;28;20046;-72
2022/03/26 00:02:52;;;;;;;54.80;27.55;;;;;;;2.92;79.65;103168.31;2079638;28;45091;-72
2022/03/26 00:03:54;;;;;;;49.13;26.42;;;;;;;2.92;80.28;103178.88;2078777;28;46768;-72
2022/03/26 00:04:58;;;;;;;47.42;25.85;;;;;;;2.89;79.77;103173.47;2079748;28;44423;-72
2022/03/26 00:05:59;;;;;;;49.72;26.15;;;;;;;2.87;79.28;103169.84;2079113;28;44695;-72
2022/03/26 00:07:01;;;;;;;46.10;25.23;;;;;;;2.85;80.48;103172.44;2078780;28;43902;-72
2022/03/26 00:08:03;;;;;;;44.10;24.45;;;;;;;2.84;80.18;103175.00;2080379;28;44103;-72
2022/03/26 00:09:05;;;;;;;45.20;23.88;;;;;;;2.83;80.39;103173.19;2088247;28;42934;-70
2022/03/26 00:10:07;;;;;;;42.83;24.45;;;;;;;2.81;80.29;103169.56;2087944;28;44741;-71
2022/03/26 00:11:11;;;;;;;48.67;25.88;;;;;;;2.78;80.24;103175.63;2088033;28;43897;-72
2022/03/26 00:12:13;;;;;;;46.42;25.30;;;;;;;2.77;80.26;103173.81;2087690;28;39159;-71
2022/03/26 00:13:17;;;;;;;52.25;26.65;;;;;;;2.74;80.67;103170.13;2088192;28;44471;-72
2022/03/26 00:14:18;;;;;;;49.90;26.48;;;;;;;2.73;80.37;103171.88;2089548;28;44030;-72
2022/03/26 00:15:20;;;;;;;47.63;24.67;;;;;;;2.70;81.04;103177.03;2088028;28;44285;-71
2022/03/26 00:16:22;;;;;;;52.00;27.00;;;;;;;2.71;81.23;103177.91;2087999;28;42756;-72
2022/03/26 00:17:25;;;;;;;51.75;27.55;;;;;;;2.70;80.80;103170.84;2088388;28;35962;-71
2022/03/26 00:18:27;;;;;;;50.25;26.13;;;;;;;2.68;80.90;103173.41;2087711;28;44550;-71
2022/03/26 00:19:31;;;;;;;49.33;26.02;;;;;;;2.66;81.04;103173.34;2087354;28;44389;-72
2022/03/26 00:20:33;;;;;;;46.35;25.90;;;;;;;2.66;81.13;103173.34;2087820;28;46041;-72
2022/03/26 00:21:37;;;;;;;48.05;27.95;;;;;;;2.65;81.47;103167.97;2087870;28;45222;-72
2022/03/26 00:22:39;;;;;;;52.60;27.30;;;;;;;2.63;80.71;103178.47;2087770;28;45319;-71
2022/03/26 00:23:40;;;;;;;59.08;28.63;;;;;;;2.61;80.63;103172.22;2088047;28;44475;-72
2022/03/26 00:24:42;;;;;;;49.72;26.17;;;;;;;2.59;80.79;103173.88;2087568;28;45637;-72
2022/03/26 00:25:44;;;;;;;46.05;24.27;;;;;;;2.57;81.30;103175.56;2087980;28;45371;-72
2022/03/26 00:26:45;;;;;;;45.58;25.02;;;;;;;2.56;80.79;103175.47;2087820;28;43734;-72
2022/03/26 00:27:48;;;;;;;49.63;26.85;;;;;;;2.53;80.78;103173.63;2078986;28;47464;-72
2022/03/26 00:28:50;;;;;;;54.92;27.92;;;;;;;2.52;82.12;103171.78;2071649;28;43403;-72
2022/03/26 00:29:51;;;;;;;50.13;26.77;;;;;;;2.49;81.62;103174.28;2071549;28;29326;-72
2022/03/26 00:30:53;;;;;;;53.95;26.52;;;;;;;2.48;82.08;103169.84;2070736;28;46277;-72
2022/03/26 00:31:57;;;;;;;58.78;30.35;;;;;;;2.47;81.50;103171.56;2071412;28;42334;-71
2022/03/26 00:32:59;;;;;;;44.30;24.60;;;;;;;2.45;81.90;103169.69;2071124;28;43508;-72
2022/03/26 00:34:01;;;;;;;52.10;27.58;;;;;;;2.42;82.02;103170.47;2072167;28;33466;-72
2022/03/26 00:35:04;;;;;;;55.30;28.10;;;;;;;2.40;82.30;103172.13;2071100;28;45465;-71
2022/03/26 00:36:08;;;;;;;58.58;29.92;;;;;;;2.40;82.35;103176.50;2070807;28;46313;-72
2022/03/26 00:37:11;;;;;;;53.60;28.02;;;;;;;2.39;82.48;103180.00;2070889;28;43355;-71
2022/03/26 00:38:13;;;;;;;54.47;28.65;;;;;;;2.39;82.34;103174.72;2071228;28;44522;-72
2022/03/26 00:39:15;;;;;;;50.90;27.13;;;;;;;2.42;82.23;103174.84;2071456;28;46019;-72
2022/03/26 00:40:17;;;;;;;55.88;27.20;;;;;;;2.38;82.05;103172.88;2071492;28;43149;-72
2022/03/26 00:41:18;;;;;;;54.55;28.15;;;;;;;2.39;82.71;103169.44;2071525;28;46141;-72
2022/03/26 00:42:20;;;;;;;51.33;27.80;;;;;;;2.38;82.62;103176.44;2071737;28;36110;-72
2022/03/26 00:43:22;;;;;;;57.30;29.23;;;;;;;2.35;82.44;103167.44;2071545;28;44614;-72
2022/03/26 00:44:24;;;;;;;65.07;30.92;;;;;;;2.35;82.58;103167.44;2072153;28;46152;-72
2022/03/26 00:45:29;;;;;;;61.42;30.17;;;;;;;2.35;82.69;103178.94;2071488;28;43841;-72
2022/03/26 00:46:30;;;;;;;57.03;28.75;;;;;;;2.36;82.66;103177.22;2070868;28;43993;-72
2022/03/26 00:47:32;;;;;;;52.00;27.40;;;;;;;2.36;82.87;103171.91;2071043;28;41965;-72
2022/03/26 00:48:34;;;;;;;64.15;31.25;;;;;;;2.35;82.40;103171.03;2071353;28;44066;-72
2022/03/26 00:49:36;;;;;;;51.08;27.65;;;;;;;2.35;82.95;103171.03;2070959;28;44273;-72
2022/03/26 00:50:38;;;;;;;57.85;30.17;;;;;;;2.35;83.42;103168.38;2071001;28;44125;-72
2022/03/26 00:51:41;;;;;;;67.72;33.70;;;;;;;2.32;83.03;103165.59;2070775;28;44027;-71
2022/03/26 00:52:42;;;;;;;63.47;32.13;;;;;;;2.34;83.65;103173.59;2071583;28;37119;-72
2022/03/26 00:53:45;;;;;;;67.63;33.85;;;;;;;2.31;83.25;103165.50;2070510;28;43363;-72
2022/03/26 00:54:47;;;;;;;60.15;31.15;;;;;;;2.29;83.55;103166.31;2070743;28;44003;-72
2022/03/26 00:55:49;;;;;;;63.53;30.83;;;;;;;2.28;82.93;103168.91;2069825;28;34498;-72
2022/03/26 00:56:51;;;;;;;70.07;34.47;;;;;;;2.27;83.18;103168.00;2071404;28;45466;-72
2022/03/26 00:57:53;;;;;;;63.75;31.58;;;;;;;2.28;83.24;103164.53;2072358;28;20959;-72
2022/03/26 00:58:54;;;;;;;66.40;33.13;;;;;;;2.27;83.26;103172.38;2079291;28;34227;-72
2022/03/26 00:59:58;;;;;;;70.32;33.47;;;;;;;2.27;83.50;103162.72;2079356;28;46252;-72
2022/03/26 01:01:00;;;;;;;72.22;32.78;;;;;;;2.26;83.44;103163.56;2080565;28;20083;-72
2022/03/26 01:02:02;;;;;;;61.33;30.80;;;;;;;2.28;83.56;103167.19;2078933;28;44458;-72
2022/03/26 01:03:08;;;;;;;65.05;30.92;;;;;;;2.28;83.20;103161.88;2079424;28;46144;-72
2022/03/26 01:04:10;;;;;;;60.65;30.40;;;;;;;2.26;83.61;103163.56;2079323;28;44385;-71
2022/03/26 01:05:15;;;;;;;67.15;32.70;;;;;;;2.24;83.24;103162.59;2079315;28;44933;-72
2022/03/26 01:06:18;;;;;;;63.42;31.70;;;;;;;2.25;83.55;103163.47;2079255;28;43376;-72
2022/03/26 01:07:20;;;;;;;59.80;28.70;;;;;;;2.22;83.69;103164.22;2079197;28;44089;-72
2022/03/26 01:08:22;;;;;;;68.85;34.08;;;;;;;2.19;83.07;103164.09;2079313;28;41736;-72
2022/03/26 01:09:23;;;;;;;68.80;33.75;;;;;;;2.18;83.06;103164.03;2079643;28;45277;-72
2022/03/26 01:10:26;;;;;;;66.57;34.10;;;;;;;2.19;83.53;103168.47;2078719;28;45133;-72
2022/03/26 01:11:28;;;;;;;75.95;36.17;;;;;;;2.17;83.33;103156.91;2079464;28;43259;-72
2022/03/26 01:12:30;;;;;;;67.47;33.80;;;;;;;2.18;84.04;103164.03;2079102;28;43498;-72
2022/03/26 01:13:34;;;;;;;74.00;36.05;;;;;;;2.17;83.80;103157.84;2079437;28;45622;-72
2022/03/26 01:14:39;;;;;;;71.72;34.50;;;;;;;2.18;83.91;103158.75;2079165;28;46450;-72
2022/03/26 01:15:41;;;;;;;76.57;35.70;;;;;;;2.19;83.31;103152.59;2079022;28;46660;-72
2022/03/26 01:16:42;;;;;;;63.80;31.65;;;;;;;2.20;84.45;103154.44;2079518;28;33051;-72
2022/03/26 01:17:44;;;;;;;65.88;32.45;;;;;;;2.17;84.47;103154.28;2079348;28;43918;-72
2022/03/26 01:18:47;;;;;;;71.60;33.85;;;;;;;2.15;84.06;103153.31;2079398;28;34789;-72
2022/03/26 01:19:50;;;;;;;71.10;33.22;;;;;;;2.15;84.04;103153.31;2078795;28;44349;-72
2022/03/26 01:20:52;;;;;;;79.30;37.05;;;;;;;2.12;84.21;103154.06;2078970;28;45594;-72
2022/03/26 01:21:54;;;;;;;70.85;35.38;;;;;;;2.12;84.17;103154.06;2079118;28;46042;-72
2022/03/26 01:22:56;;;;;;;74.93;36.15;;;;;;;2.11;84.89;103154.88;2079350;28;43733;-72
2022/03/26 01:23:58;;;;;;;64.03;31.92;;;;;;;2.12;84.67;103156.72;2078651;28;43976;-72
2022/03/26 01:25:00;;;;;;;65.55;32.35;;;;;;;2.12;84.08;103151.44;2078038;28;45180;-72
2022/03/26 01:26:03;;;;;;;70.10;34.25;;;;;;;2.12;84.09;103158.44;2079225;28;45775;-72
2022/03/26 01:27:06;;;;;;;74.88;35.88;;;;;;;2.06;84.27;103149.41;2079137;28;44459;-72
2022/03/26 01:28:08;;;;;;;71.78;35.33;;;;;;;2.03;84.22;103146.59;2079336;28;45229;-72
2022/03/26 01:29:10;;;;;;;74.25;34.38;;;;;;;2.02;84.40;103151.81;2079454;28;33908;-72
2022/03/26 01:30:13;;;;;;;72.88;36.45;;;;;;;2.01;84.54;103144.69;2079444;28;44676;-72
2022/03/26 01:31:19;;;;;;;72.88;33.70;;;;;;;1.99;84.55;103142.03;2078674;28;44244;-72
2022/03/26 01:32:21;;;;;;;69.97;33.10;;;;;;;2.00;84.74;103149.09;2079311;28;45825;-72
2022/03/26 01:33:23;;;;;;;76.22;35.88;;;;;;;1.98;85.18;103152.50;2078848;28;44403;-71
2022/03/26 01:34:26;;;;;;;76.95;36.90;;;;;;;2.00;85.48;103149.09;2078912;28;45722;-72
2022/03/26 01:35:28;;;;;;;73.18;33.42;;;;;;;2.01;85.31;103142.06;2078805;28;46156;-72
2022/03/26 01:36:29;;;;;;;67.88;34.13;;;;;;;2.02;85.31;103143.88;2079579;28;43888;-71
2022/03/26 01:37:33;;;;;;;77.43;36.60;;;;;;;2.00;84.71;103153.47;2079602;28;47091;-71
2022/03/26 01:38:35;;;;;;;74.32;37.33;;;;;;;1.99;85.16;103141.09;2079480;28;40354;-72
2022/03/26 01:39:40;;;;;;;83.80;38.22;;;;;;;1.98;85.25;103144.59;2079617;28;27007;-72
2022/03/26 01:40:42;;;;;;;76.13;35.13;;;;;;;1.97;85.67;103143.66;2079427;28;30868;-72
2022/03/26 01:41:43;;;;;;;72.25;36.20;;;;;;;1.97;85.22;103141.00;2078790;28;43985;-72
2022/03/26 01:42:45;;;;;;;78.57;37.03;;;;;;;1.93;84.75;103135.53;2079121;28;44779;-72
2022/03/26 01:43:47;;;;;;;74.30;35.20;;;;;;;1.91;84.79;103133.69;2079067;28;43538;-72
2022/03/26 01:44:49;;;;;;;72.45;36.72;;;;;;;1.87;84.85;103137.03;2078999;28;44028;-72
2022/03/26 01:45:51;;;;;;;81.70;38.72;;;;;;;1.86;84.91;103140.50;2079974;28;20212;-72
2022/03/26 01:46:54;;;;;;;75.20;37.13;;;;;;;1.85;85.70;103135.16;2079021;28;46489;-72
2022/03/26 01:47:59;;;;;;;79.20;37.67;;;;;;;1.83;85.10;103128.88;2079885;28;20807;-72
2022/03/26 01:49:00;;;;;;;90.60;40.58;;;;;;;1.81;84.93;103135.81;2079611;28;41985;-72
2022/03/26 01:50:03;;;;;;;86.45;37.47;;;;;;;1.80;85.28;103134.03;2078725;28;45278;-72
2022/03/26 01:51:17;;;;;;;102.43;41.03;;;;;;;1.80;85.61;103134.03;2078508;28;45417;-72
2022/03/26 01:52:19;;;;;;;89.22;39.47;;;;;;;1.80;85.97;103124.38;2078470;28;44919;-71
2022/03/26 01:53:20;;;;;;;100.47;44.50;;;;;;;1.85;86.61;103128.13;2078503;28;46346;-72
2022/03/26 01:54:23;;;;;;;79.55;37.78;;;;;;;1.83;86.75;103120.94;2078244;28;45902;-72
2022/03/26 01:55:28;;;;;;;87.15;40.10;;;;;;;1.84;86.52;103125.41;2078828;28;44791;-72
2022/03/26 01:56:30;;;;;;;81.57;37.78;;;;;;;1.84;86.34;103121.03;2069848;28;45728;-72
2022/03/26 01:57:31;;;;;;;108.50;44.92;;;;;;;1.85;86.59;103114.03;2071566;28;30271;-73
2022/03/26 01:58:33;;;;;;;89.18;41.08;;;;;;;1.85;86.59;103122.84;2077804;28;45971;-72
2022/03/26 01:59:35;;;;;;;88.38;41.63;;;;;;;1.87;87.18;103121.19;2079087;28;45359;-72
2022/03/26 02:00:37;;;;;;;88.90;39.85;;;;;;;1.83;85.97;103124.53;2077977;28;44267;-72
2022/03/26 02:01:40;;;;;;;92.60;41.90;;;;;;;1.82;86.45;103117.41;2077932;28;46791;-72
2022/03/26 02:02:43;;;;;;;97.93;42.20;;;;;;;1.79;85.87;103122.53;2079162;28;29501;-72
2022/03/26 02:03:45;;;;;;;74.93;35.42;;;;;;;1.79;86.72;103121.66;2078950;28;45334;-73
2022/03/26 02:04:47;;;;;;;90.03;41.38;;;;;;;1.79;86.40;103119.00;2078778;28;45508;-71
2022/03/26 02:05:48;;;;;;;105.10;44.45;;;;;;;1.78;86.56;103120.75;2079213;28;45291;-72
2022/03/26 02:06:50;;;;;;;88.00;41.72;;;;;;;1.80;86.90;103124.38;2078342;28;44946;-71
2022/03/26 02:07:52;;;;;;;121.15;49.45;;;;;;;1.94;88.56;103122.41;2078674;28;36717;-71
2022/03/26 02:08:54;;;;;;;111.65;47.28;;;;;;;1.91;87.72;103112.56;2078329;28;43905;-71
2022/03/26 02:09:56;;;;;;;94.32;41.70;;;;;;;1.89;87.34;103119.53;2078387;28;44910;-71
2022/03/26 02:10:58;;;;;;;103.78;45.90;;;;;;;1.88;86.84;103119.44;2078024;28;46478;-72
2022/03/26 02:12:01;;;;;;;96.32;43.60;;;;;;;1.88;87.43;103111.53;2078796;28;47917;-71
2022/03/26 02:13:06;;;;;;;104.00;45.50;;;;;;;1.89;86.80;103103.66;2079576;28;28837;-71
2022/03/26 02:14:09;;;;;;;97.22;42.72;;;;;;;1.87;86.84;103105.34;2078873;28;45196;-71
2022/03/26 02:15:12;;;;;;;94.95;41.88;;;;;;;1.84;86.71;103114.84;2078424;28;44594;-71
2022/03/26 02:16:14;;;;;;;94.25;41.60;;;;;;;1.80;86.48;103105.88;2078290;28;43997;-72
2022/03/26 02:17:19;;;;;;;85.55;40.13;;;;;;;1.77;86.60;103102.19;2079060;28;45363;-71
2022/03/26 02:18:20;;;;;;;97.63;43.35;;;;;;;1.75;86.66;103104.75;2078937;28;44776;-71
2022/03/26 02:19:22;;;;;;;108.65;46.17;;;;;;;1.72;86.87;103107.22;2079294;28;41156;-71
2022/03/26 02:20:24;;;;;;;100.40;44.75;;;;;;;1.71;86.78;103105.44;2078723;28;44399;-72
2022/03/26 02:21:26;;;;;;;88.05;39.45;;;;;;;1.70;87.13;103098.34;2079390;28;44873;-71
2022/03/26 02:22:29;;;;;;;105.07;44.70;;;;;;;1.69;86.83;103107.09;2078824;28;45611;-72
2022/03/26 02:23:30;;;;;;;100.65;45.30;;;;;;;1.67;86.84;103101.75;2078517;28;45836;-71
2022/03/26 02:24:32;;;;;;;100.85;44.63;;;;;;;1.66;86.98;103110.47;2079411;28;44276;-72
2022/03/26 02:25:34;;;;;;;106.82;45.72;;;;;;;1.67;87.19;103111.38;2078630;28;46501;-71
2022/03/26 02:26:37;;;;;;;104.70;45.58;;;;;;;1.66;87.63;103104.31;2079091;28;43398;-73
2022/03/26 02:27:40;;;;;;;98.53;43.33;;;;;;;1.64;86.85;103108.59;2079753;28;20046;-72
2022/03/26 02:28:44;;;;;;;98.28;43.15;;;;;;;1.64;87.39;103111.25;2079224;28;45818;-72
2022/03/26 02:29:45;;;;;;;101.18;43.97;;;;;;;1.63;87.26;103112.06;2079065;28;39311;-72
2022/03/26 02:30:47;;;;;;;103.25;45.97;;;;;;;1.62;87.32;103110.28;2078796;28;46511;-71
2022/03/26 02:31:49;;;;;;;96.03;43.40;;;;;;;1.62;87.23;103110.28;2078894;28;44428;-71
2022/03/26 02:32:50;;;;;;;101.00;44.08;;;;;;;1.63;86.75;103110.31;2078468;28;45830;-71
2022/03/26 02:33:52;;;;;;;109.80;45.35;;;;;;;1.63;87.62;103109.44;2078670;28;46021;-71
2022/03/26 02:34:55;;;;;;;115.55;48.85;;;;;;;1.70;88.14;103116.81;2078839;28;35863;-72
2022/03/26 02:36:02;;;;;;;125.85;52.28;;;;;;;1.78;88.61;103109.28;2078615;28;43889;-71
2022/03/26 02:37:04;;;;;;;120.50;49.38;;;;;;;1.75;87.96;103109.13;2078746;28;43392;-70
2022/03/26 02:38:06;;;;;;;105.68;47.03;;;;;;;1.77;88.00;103111.00;2078861;28;40618;-71
2022/03/26 02:39:07;;;;;;;118.45;49.88;;;;;;;1.76;88.06;103111.84;2078906;28;44819;-70
2022/03/26 02:40:10;;;;;;;121.55;50.75;;;;;;;1.81;88.45;103109.41;2079125;28;43943;-72
2022/03/26 02:41:12;;;;;;;110.80;48.45;;;;;;;1.80;87.69;103113.81;2078967;28;45135;-69
2022/03/26 02:42:14;;;;;;;104.20;44.17;;;;;;;1.80;87.74;103108.53;2078780;28;43677;-71
2022/03/26 02:43:16;;;;;;;103.72;44.65;;;;;;;1.78;87.77;103115.47;2079460;28;42910;-71
2022/03/26 02:44:18;;;;;;;118.75;49.83;;;;;;;1.80;87.70;103103.25;2078551;28;47693;-70
2022/03/26 02:45:20;;;;;;;121.00;51.28;;;;;;;1.79;87.73;103109.34;2078513;28;44398;-69
2022/03/26 02:46:22;;;;;;;115.28;48.03;;;;;;;1.79;87.53;103101.41;2078764;28;45702;-71
2022/03/26 02:47:27;;;;;;;98.97;41.83;;;;;;;1.79;87.62;103106.69;2078829;28;46252;-71
2022/03/26 02:48:30;;;;;;;97.57;44.80;;;;;;;1.79;87.38;103095.22;2078524;28;43852;-71
2022/03/26 02:49:32;;;;;;;107.55;45.28;;;;;;;1.76;87.19;103098.66;2079002;28;44794;-70
2022/03/26 02:50:33;;;;;;;105.03;45.38;;;;;;;1.75;87.78;103099.47;2078272;28;43438;-70
2022/03/26 02:51:35;;;;;;;103.20;45.45;;;;;;;1.73;87.55;103092.31;2069518;28;42743;-71
2022/03/26 02:52:37;;;;;;;110.15;45.17;;;;;;;1.70;87.44;103093.06;2069938;28;46097;-70
2022/03/26 02:53:38;;;;;;;106.65;47.22;;;;;;;1.68;87.33;103092.97;2078477;28;45106;-70
2022/03/26 02:54:41;;;;;;;119.97;50.17;;;;;;;1.66;86.72;103093.75;2078443;28;46371;-70
2022/03/26 02:55:43;;;;;;;96.38;44.00;;;;;;;1.66;87.38;103091.09;2078939;28;43790;-70
2022/03/26 02:56:48;;;;;;;111.07;48.97;;;;;;;1.64;87.69;103088.38;2078818;28;45432;-71
2022/03/26 02:57:49;;;;;;;93.28;42.22;;;;;;;1.63;87.29;103091.84;2078346;28;42117;-71
2022/03/26 02:58:51;;;;;;;101.82;46.60;;;;;;;1.60;87.82;103082.88;2078654;28;43860;-70
2022/03/26 02:59:53;;;;;;;119.22;49.50;;;;;;;1.58;87.38;103082.81;2078942;28;45134;-70
2022/03/26 03:00:55;;;;;;;115.88;47.95;;;;;;;1.59;87.76;103081.06;2078723;28;42592;-71
2022/03/26 03:01:57;;;;;;;104.75;46.17;;;;;;;1.58;87.90;103082.81;2078691;28;44054;-70
2022/03/26 03:02:59;;;;;;;104.82;48.72;;;;;;;1.57;87.45;103090.66;2078481;28;45118;-71
2022/03/26 03:04:00;;;;;;;111.20;48.58;;;;;;;1.54;88.15;103088.75;2079014;28;43275;-71
2022/03/26 03:05:02;;;;;;;109.70;46.72;;;;;;;1.50;87.58;103082.41;2078587;28;45329;-71
2022/03/26 03:06:05;;;;;;;105.80;46.13;;;;;;;1.49;88.27;103080.63;2079120;28;43145;-71
2022/03/26 03:07:08;;;;;;;110.10;45.95;;;;;;;1.48;87.75;103078.81;2078865;28;43853;-71
2022/03/26 03:08:10;;;;;;;97.47;43.22;;;;;;;1.49;88.11;103082.34;2078360;28;46251;-71
2022/03/26 03:09:12;;;;;;;123.60;50.60;;;;;;;1.52;88.98;103085.13;2078638;28;44395;-71
2022/03/26 03:10:16;;;;;;;115.03;47.65;;;;;;;1.51;88.58;103080.72;2078923;28;46004;-71
2022/03/26 03:11:19;;;;;;;119.55;49.42;;;;;;;1.50;89.03;103084.16;2078847;28;46053;-71
2022/03/26 03:12:22;;;;;;;105.43;45.97;;;;;;;1.50;89.44;103082.41;2079063;28;43309;-70
2022/03/26 03:13:24;;;;;;;104.63;44.20;;;;;;;1.50;89.00;103078.88;2078564;28;45065;-71
2022/03/26 03:14:26;;;;;;;119.28;49.38;;;;;;;1.51;89.03;103080.72;2078755;28;42090;-70
2022/03/26 03:15:27;;;;;;;114.38;47.38;;;;;;;1.51;89.01;103089.53;2078148;28;45238;-71
2022/03/26 03:16:29;;;;;;;98.75;44.38;;;;;;;1.50;88.80;103082.41;2078693;28;45814;-71
2022/03/26 03:17:41;;;;;;;95.18;42.80;;;;;;;1.50;88.72;103092.97;2078571;28;44012;-71
2022/03/26 03:18:43;;;;;;;116.50;47.22;;;;;;;1.50;88.84;103092.97;2078420;28;46512;-71
2022/03/26 03:19:49;;;;;;;103.80;45.08;;;;;;;1.49;88.93;103092.91;2080217;28;31331;-71
2022/03/26 03:20:50;;;;;;;109.70;45.22;;;;;;;1.49;88.25;103092.91;2079973;28;45442;-71
2022/03/26 03:21:52;;;;;;;100.65;43.15;;;;;;;1.48;88.08;103091.09;2079838;28;45858;-71
2022/03/26 03:22:54;;;;;;;101.43;44.50;;;;;;;1.47;88.52;103094.56;2079993;28;44089;-71
2022/03/26 03:23:55;;;;;;;111.30;47.72;;;;;;;1.45;87.95;103094.47;2079603;28;45170;-71
2022/03/26 03:24:58;;;;;;;100.03;42.53;;;;;;;1.46;88.00;103093.66;2080107;28;43367;-70
2022/03/26 03:25:59;;;;;;;91.93;42.92;;;;;;;1.46;88.81;103091.03;2079839;28;45206;-70
2022/03/26 03:27:01;;;;;;;98.85;41.92;;;;;;;1.44;87.86;103089.16;2079569;28;43724;-70
2022/03/26 03:28:04;;;;;;;106.90;48.17;;;;;;;1.41;87.71;103089.91;2080110;28;44977;-70
2022/03/26 03:29:05;;;;;;;100.75;43.80;;;;;;;1.40;88.18;103093.38;2079837;28;45668;-72
2022/03/26 03:30:08;;;;;;;108.47;45.47;;;;;;;1.41;88.79;103096.91;2080043;28;44622;-70
2022/03/26 03:31:10;;;;;;;114.28;48.55;;;;;;;1.38;88.74;103097.66;2080151;28;43778;-71
2022/03/26 03:32:12;;;;;;;111.60;48.80;;;;;;;1.38;88.74;103095.00;2079685;28;45365;-70
2022/03/26 03:33:14;;;;;;;108.07;45.38;;;;;;;1.38;88.42;103084.44;2080330;28;38919;-70
2022/03/26 03:34:16;;;;;;;112.65;47.47;;;;;;;1.36;88.78;103083.47;2079878;28;44267;-70
2022/03/26 03:35:18;;;;;;;124.63;51.28;;;;;;;1.33;88.30;103084.25;2080043;28;43749;-70
2022/03/26 03:36:19;;;;;;;108.25;45.75;;;;;;;1.33;88.81;103081.59;2080080;28;32733;-71
2022/03/26 03:37:23;;;;;;;130.15;55.40;;;;;;;1.38;90.12;103081.81;2080093;28;45993;-71
2022/03/26 03:38:25;;;;;;;127.22;51.25;;;;;;;1.38;89.50;103073.91;2080241;28;42049;-70
2022/03/26 03:39:27;;;;;;;109.40;46.00;;;;;;;1.38;89.61;103084.44;2080091;28;44190;-71
2022/03/26 03:40:28;;;;;;;103.30;45.50;;;;;;;1.39;89.32;103078.34;2079803;28;44395;-71
2022/03/26 03:41:30;;;;;;;115.35;47.15;;;;;;;1.37;88.68;103089.69;2079552;28;45548;-70
2022/03/26 03:42:33;;;;;;;106.75;46.40;;;;;;;1.34;89.44;103085.13;2079994;28;46263;-70
2022/03/26 03:43:34;;;;;;;106.10;44.15;;;;;;;1.33;88.88;103092.16;2080083;28;43074;-71
2022/03/26 03:44:36;;;;;;;98.32;42.28;;;;;;;1.31;89.29;103095.53;2079418;28;43076;-71
2022/03/26 03:45:40;;;;;;;108.70;45.63;;;;;;;1.28;88.94;103085.75;2079728;28;43454;-71
2022/03/26 03:46:42;;;;;;;104.65;46.05;;;;;;;1.26;88.56;103081.22;2079630;28;44094;-71
2022/03/26 03:47:43;;;;;;;113.68;47.78;;;;;;;1.22;89.21;103080.19;2079738;28;46667;-70
2022/03/26 03:48:45;;;;;;;113.85;47.92;;;;;;;1.22;89.48;103087.16;2080050;28;44839;-71
2022/03/26 03:49:47;;;;;;;124.25;51.45;;;;;;;1.22;89.58;103081.88;2080357;28;44054;-71
2022/03/26 03:50:48;;;;;;;103.38;45.83;;;;;;;1.21;89.83;103088.91;2079868;28;36062;-71
2022/03/26 03:51:50;;;;;;;110.50;46.20;;;;;;;1.20;89.20;103086.19;2080122;28;43124;-70
2022/03/26 03:52:52;;;;;;;111.15;45.67;;;;;;;1.20;89.20;103088.81;2079498;28;46649;-70
2022/03/26 03:53:54;;;;;;;114.80;49.22;;;;;;;1.17;89.22;103089.59;2080095;28;44924;-70
2022/03/26 03:54:55;;;;;;;104.32;47.10;;;;;;;1.15;89.60;103080.69;2079231;28;46533;-70
2022/03/26 03:55:57;;;;;;;107.72;44.05;;;;;;;1.14;89.45;103078.88;2080119;28;46156;-71
2022/03/26 03:56:58;;;;;;;98.85;44.67;;;;;;;1.13;89.66;103083.25;2079502;28;44810;-72
2022/03/26 03:58:00;;;;;;;122.38;50.03;;;;;;;1.11;89.51;103086.63;2079676;28;46785;-71
2022/03/26 03:59:04;;;;;;;126.32;49.25;;;;;;;1.08;89.64;103089.13;2079939;28;45463;-71
2022/03/26 04:00:07;;;;;;;105.03;45.08;;;;;;;1.08;89.92;103081.22;2079821;28;43734;-70
2022/03/26 04:01:12;;;;;;;102.03;44.65;;;;;;;1.06;89.98;103089.03;2080460;28;20153;-71
2022/03/26 04:02:14;;;;;;;128.88;52.03;;;;;;;1.03;89.75;103090.63;2079531;28;45757;-70
2022/03/26 04:03:17;;;;;;;138.80;52.85;;;;;;;1.01;89.69;103084.38;2080048;28;44120;-71
2022/03/26 04:04:18;;;;;;;114.13;48.45;;;;;;;1.02;89.87;103089.69;2079727;28;43744;-71
2022/03/26 04:05:21;;;;;;;118.45;49.25;;;;;;;1.00;89.73;103088.72;2080375;28;20779;-70
2022/03/26 04:06:23;;;;;;;108.75;44.97;;;;;;;1.02;90.19;103084.41;2080222;28;32874;-71
2022/03/26 04:07:25;;;;;;;120.05;48.38;;;;;;;1.01;90.80;103095.81;2079459;28;43152;-71
2022/03/26 04:08:26;;;;;;;133.85;52.67;;;;;;;1.01;90.44;103087.00;2079767;28;43530;-71
2022/03/26 04:09:28;;;;;;;133.90;52.78;;;;;;;1.01;90.25;103089.66;2079587;28;45799;-71
2022/03/26 04:10:30;;;;;;;115.63;48.90;;;;;;;1.00;90.56;103093.09;2079452;28;44101;-71
2022/03/26 04:11:32;;;;;;;122.63;48.38;;;;;;;1.00;91.06;103091.34;2079478;28;46508;-69
2022/03/26 04:12:39;;;;;;;126.28;49.25;;;;;;;0.99;90.47;103096.53;2080010;28;43022;-71
2022/03/26 04:13:40;;;;;;;122.75;49.40;;;;;;;0.97;90.53;103093.84;2079476;28;42773;-71
2022/03/26 04:14:43;;;;;;;118.28;47.47;;;;;;;0.98;90.90;103089.47;2079646;28;46750;-70
2022/03/26 04:15:45;;;;;;;123.25;49.38;;;;;;;0.95;89.89;103092.84;2079505;28;43390;-71
2022/03/26 04:16:47;;;;;;;112.53;46.45;;;;;;;0.95;90.01;103084.94;2079989;28;45680;-70
2022/03/26 04:17:52;;;;;;;102.60;43.40;;;;;;;0.94;90.71;103093.69;2079470;28;33286;-70
2022/03/26 04:18:58;;;;;;;111.00;46.47;;;;;;;0.90;90.87;103092.63;2079814;28;42756;-70
2022/03/26 04:20:01;;;;;;;132.52;50.45;;;;;;;0.90;90.55;103097.00;2079100;28;46163;-70
2022/03/26 04:21:04;;;;;;;111.70;45.40;;;;;;;0.89;91.00;103106.63;2080303;28;20037;-70
2022/03/26 04:22:06;;;;;;;124.05;49.17;;;;;;;0.87;90.39;103100.38;2078676;28;44936;-70
2022/03/26 04:23:08;;;;;;;128.32;50.83;;;;;;;0.88;90.25;103101.25;2079035;28;46278;-70
2022/03/26 04:24:10;;;;;;;112.25;48.20;;;;;;;0.88;90.71;103101.25;2079707;28;43750;-70
2022/03/26 04:25:12;;;;;;;124.05;48.88;;;;;;;0.87;90.45;103095.09;2079457;28;43986;-70
2022/03/26 04:26:14;;;;;;;139.93;53.78;;;;;;;0.86;90.41;103102.91;2079536;28;44520;-71
2022/03/26 04:27:16;;;;;;;132.82;51.63;;;;;;;0.88;90.91;103091.66;2079126;28;45096;-70
2022/03/26 04:28:18;;;;;;;145.95;54.63;;;;;;;0.87;91.63;103102.13;2079321;28;43920;-70
2022/03/26 04:29:21;;;;;;;123.57;50.45;;;;;;;0.87;90.67;103113.56;2079974;28;44077;-70
2022/03/26 04:30:22;;;;;;;125.47;48.78;;;;;;;0.85;91.15;103104.66;2079551;28;44210;-70
2022/03/26 04:31:24;;;;;;;139.45;53.60;;;;;;;0.84;91.53;103107.22;2079783;28;44511;-71
2022/03/26 04:32:26;;;;;;;138.63;54.72;;;;;;;0.85;90.97;103103.78;2079570;28;44160;-71
2022/03/26 04:33:28;;;;;;;121.28;47.45;;;;;;;0.85;90.95;103114.31;2079971;28;44410;-70
2022/03/26 04:34:29;;;;;;;146.20;52.72;;;;;;;0.82;91.52;103104.50;2080101;28;43723;-71
2022/03/26 04:35:31;;;;;;;134.50;52.60;;;;;;;0.83;90.69;103105.44;2079508;28;45452;-70
2022/03/26 04:36:34;;;;;;;144.25;55.20;;;;;;;0.83;90.68;103113.34;2079883;28;45066;-71
2022/03/26 04:37:37;;;;;;;151.68;56.20;;;;;;;0.82;91.05;103111.50;2079829;28;44269;-71
2022/03/26 04:38:39;;;;;;;149.05;55.13;;;;;;;0.82;91.52;103119.41;2079338;28;46388;-71
2022/03/26 04:39:41;;;;;;;135.38;54.58;;;;;;;0.80;91.60;103116.69;2078591;28;42327;-70
2022/03/26 04:40:43;;;;;;;147.40;55.53;;;;;;;0.78;91.17;103112.19;2078862;28;43101;-70
2022/03/26 04:41:47;;;;;;;120.85;49.08;;;;;;;0.79;91.00;103117.53;2080101;28;20090;-70
2022/03/26 04:42:49;;;;;;;123.40;48.55;;;;;;;0.76;91.52;103118.28;2079790;28;30543;-70
2022/03/26 04:43:52;;;;;;;127.97;52.15;;;;;;;0.75;91.29;103121.75;2079393;28;44921;-71
2022/03/26 04:44:58;;;;;;;139.85;52.95;;;;;;;0.75;91.58;103124.38;2079815;28;43928;-71
2022/03/26 04:45:59;;;;;;;147.82;53.72;;;;;;;0.75;92.04;103115.56;2079472;28;45633;-71